sensor_id;sensor_type;location;lat;lon;timestamp;pressure;altitude;pressure_sealevel;temperature;humidity
18755;BME280;35061;47.664;9.166;2023-04-15T00:01:50;100575.01;;;5.46;67.97
18755;BME280;35061;47.664;9.166;2023-04-15T00:04:19;100574.80;;;5.40;67.86
18755;BME280;35061;47.664;9.166;2023-04-15T00:06:51;100570.07;;;5.37;68.31
18755;BME280;35061;47.664;9.166;2023-04-15T00:09:22;100565.33;;;5.34;68.21
18755;BME280;35061;47.664;9.166;2023-04-15T00:11:50;100568.30;;;5.30;68.34
18755;BME280;35061;47.664;9.166;2023-04-15T00:14:18;100567.98;;;5.28;68.41
18755;BME280;35061;47.664;9.166;2023-04-15T00:16:46;100559.15;;;5.26;68.60
18755;BME280;35061;47.664;9.166;2023-04-15T00:19:14;100564.80;;;5.26;68.99
18755;BME280;35061;47.664;9.166;2023-04-15T00:21:42;100560.84;;;5.24;68.80
18755;BME280;35061;47.664;9.166;2023-04-15T00:24:10;100563.69;;;5.24;69.04
18755;BME280;35061;47.664;9.166;2023-04-15T00:26:38;100568.10;;;5.25;68.91
18755;BME280;35061;47.664;9.166;2023-04-15T00:29:06;100568.89;;;5.25;69.23
18755;BME280;35061;47.664;9.166;2023-04-15T00:31:34;100566.96;;;5.22;68.95
18755;BME280;35061;47.664;9.166;2023-04-15T00:34:03;100568.23;;;5.21;69.06
18755;BME280;35061;47.664;9.166;2023-04-15T00:36:31;100574.84;;;5.18;69.02
18755;BME280;35061;47.664;9.166;2023-04-15T00:39:00;100564.73;;;5.17;69.28
18755;BME280;35061;47.664;9.166;2023-04-15T00:41:30;100560.32;;;5.16;69.24
18755;BME280;35061;47.664;9.166;2023-04-15T00:43:59;100566.02;;;5.16;69.48
18755;BME280;35061;47.664;9.166;2023-04-15T00:46:29;100561.53;;;5.15;69.46
18755;BME280;35061;47.664;9.166;2023-04-15T00:48:58;100556.34;;;5.13;69.59
18755;BME280;35061;47.664;9.166;2023-04-15T00:51:28;100566.44;;;5.14;69.83
18755;BME280;35061;47.664;9.166;2023-04-15T00:53:56;100564.54;;;5.11;69.94
18755;BME280;35061;47.664;9.166;2023-04-15T00:56:24;100574.77;;;5.09;69.75
18755;BME280;35061;47.664;9.166;2023-04-15T00:58:53;100563.98;;;5.03;69.94
18755;BME280;35061;47.664;9.166;2023-04-15T01:01:23;100562.52;;;4.99;69.93
18755;BME280;35061;47.664;9.166;2023-04-15T01:03:55;100572.29;;;4.98;70.65
18755;BME280;35061;47.664;9.166;2023-04-15T01:06:24;100562.22;;;4.97;70.82
18755;BME280;35061;47.664;9.166;2023-04-15T01:08:54;100573.89;;;4.99;70.94
18755;BME280;35061;47.664;9.166;2023-04-15T01:11:22;100573.11;;;4.98;71.01
18755;BME280;35061;47.664;9.166;2023-04-15T01:13:51;100571.21;;;4.95;70.87
18755;BME280;35061;47.664;9.166;2023-04-15T01:16:21;100575.20;;;4.85;70.52
18755;BME280;35061;47.664;9.166;2023-04-15T01:18:49;100574.52;;;4.81;71.16
18755;BME280;35061;47.664;9.166;2023-04-15T01:21:17;100579.55;;;4.77;70.98
18755;BME280;35061;47.664;9.166;2023-04-15T01:23:46;100578.41;;;4.74;71.32
18755;BME280;35061;47.664;9.166;2023-04-15T01:26:15;100570.33;;;4.72;71.70
18755;BME280;35061;47.664;9.166;2023-04-15T01:28:44;100580.70;;;4.66;71.58
18755;BME280;35061;47.664;9.166;2023-04-15T01:31:13;100579.26;;;4.61;71.41
18755;BME280;35061;47.664;9.166;2023-04-15T01:33:42;100578.47;;;4.48;73.10
18755;BME280;35061;47.664;9.166;2023-04-15T01:36:10;100570.66;;;4.39;72.74
18755;BME280;35061;47.664;9.166;2023-04-15T01:38:38;100577.69;;;4.35;72.34
18755;BME280;35061;47.664;9.166;2023-04-15T01:41:06;100582.82;;;4.27;72.44
18755;BME280;35061;47.664;9.166;2023-04-15T01:43:37;100578.18;;;4.20;72.69
18755;BME280;35061;47.664;9.166;2023-04-15T01:46:05;100581.58;;;4.15;72.76
18755;BME280;35061;47.664;9.166;2023-04-15T01:48:33;100582.95;;;4.10;73.06
18755;BME280;35061;47.664;9.166;2023-04-15T01:51:01;100579.98;;;4.14;73.81
18755;BME280;35061;47.664;9.166;2023-04-15T01:53:29;100577.13;;;4.14;73.99
18755;BME280;35061;47.664;9.166;2023-04-15T01:55:57;100580.34;;;4.16;74.33
18755;BME280;35061;47.664;9.166;2023-04-15T01:58:25;100577.39;;;4.19;74.17
18755;BME280;35061;47.664;9.166;2023-04-15T02:00:53;100584.98;;;4.23;74.06
18755;BME280;35061;47.664;9.166;2023-04-15T02:03:21;100578.83;;;4.24;74.57
18755;BME280;35061;47.664;9.166;2023-04-15T02:05:50;100584.48;;;4.24;74.01
18755;BME280;35061;47.664;9.166;2023-04-15T02:08:18;100584.39;;;4.28;74.37
18755;BME280;35061;47.664;9.166;2023-04-15T02:10:46;100583.51;;;4.31;74.62
18755;BME280;35061;47.664;9.166;2023-04-15T02:13:14;100587.10;;;4.31;74.50
18755;BME280;35061;47.664;9.166;2023-04-15T02:15:47;100585.21;;;4.28;74.61
18755;BME280;35061;47.664;9.166;2023-04-15T02:18:15;100597.08;;;4.36;75.21
18755;BME280;35061;47.664;9.166;2023-04-15T02:20:43;100584.48;;;4.37;75.04
18755;BME280;35061;47.664;9.166;2023-04-15T02:23:12;100588.90;;;4.38;74.93
18755;BME280;35061;47.664;9.166;2023-04-15T02:25:40;100586.09;;;4.38;74.95
18755;BME280;35061;47.664;9.166;2023-04-15T02:28:18;100595.05;;;4.37;74.73
18755;BME280;35061;47.664;9.166;2023-04-15T02:30:48;100599.04;;;4.26;74.76
18755;BME280;35061;47.664;9.166;2023-04-15T02:33:20;100599.27;;;4.19;74.73
18755;BME280;35061;47.664;9.166;2023-04-15T02:35:48;100600.74;;;4.11;74.79
18755;BME280;35061;47.664;9.166;2023-04-15T02:38:16;100594.62;;;3.99;75.00
18755;BME280;35061;47.664;9.166;2023-04-15T02:40:44;100595.51;;;3.96;75.34
18755;BME280;35061;47.664;9.166;2023-04-15T02:43:13;100588.61;;;3.97;76.06
18755;BME280;35061;47.664;9.166;2023-04-15T02:45:41;100588.94;;;3.99;75.75
18755;BME280;35061;47.664;9.166;2023-04-15T02:48:10;100577.26;;;3.97;75.96
18755;BME280;35061;47.664;9.166;2023-04-15T02:50:38;100588.94;;;3.99;75.94
18755;BME280;35061;47.664;9.166;2023-04-15T02:53:07;100588.51;;;4.01;76.31
18755;BME280;35061;47.664;9.166;2023-04-15T02:55:35;100591.09;;;4.08;76.33
18755;BME280;35061;47.664;9.166;2023-04-15T02:58:03;100586.22;;;4.09;76.16
18755;BME280;35061;47.664;9.166;2023-04-15T03:00:31;100585.08;;;4.06;75.97
18755;BME280;35061;47.664;9.166;2023-04-15T03:03:02;100585.21;;;4.02;76.66
18755;BME280;35061;47.664;9.166;2023-04-15T03:05:31;100587.70;;;4.00;76.26
18755;BME280;35061;47.664;9.166;2023-04-15T03:07:59;100590.18;;;3.98;76.62
18755;BME280;35061;47.664;9.166;2023-04-15T03:10:27;100593.02;;;3.98;76.60
18755;BME280;35061;47.664;9.166;2023-04-15T03:12:55;100593.71;;;4.02;77.00
18755;BME280;35061;47.664;9.166;2023-04-15T03:15:23;100596.88;;;4.04;76.74
18755;BME280;35061;47.664;9.166;2023-04-15T03:17:51;100599.73;;;4.04;76.68
18755;BME280;35061;47.664;9.166;2023-04-15T03:20:19;100595.05;;;3.98;76.50
18755;BME280;35061;47.664;9.166;2023-04-15T03:22:47;100602.67;;;3.88;77.34
18755;BME280;35061;47.664;9.166;2023-04-15T03:25:15;100601.27;;;3.80;76.82
18755;BME280;35061;47.664;9.166;2023-04-15T03:27:43;100600.28;;;3.73;77.01
18755;BME280;35061;47.664;9.166;2023-04-15T03:30:11;100596.95;;;3.62;77.01
18755;BME280;35061;47.664;9.166;2023-04-15T03:32:39;100599.89;;;3.58;77.25
18755;BME280;35061;47.664;9.166;2023-04-15T03:35:08;100604.50;;;3.52;77.37
18755;BME280;35061;47.664;9.166;2023-04-15T03:37:36;100608.36;;;3.45;77.72
18755;BME280;35061;47.664;9.166;2023-04-15T03:40:04;100603.26;;;3.40;77.97
18755;BME280;35061;47.664;9.166;2023-04-15T03:42:32;100603.26;;;3.40;78.40
18755;BME280;35061;47.664;9.166;2023-04-15T03:45:00;100593.88;;;3.43;78.45
18755;BME280;35061;47.664;9.166;2023-04-15T03:47:28;100594.52;;;3.47;78.52
18755;BME280;35061;47.664;9.166;2023-04-15T03:49:56;100601.46;;;3.46;78.39
18755;BME280;35061;47.664;9.166;2023-04-15T03:52:24;100602.15;;;3.51;79.04
18755;BME280;35061;47.664;9.166;2023-04-15T03:54:52;100596.26;;;3.58;79.18
18755;BME280;35061;47.664;9.166;2023-04-15T03:57:20;100592.17;;;3.59;78.68
18755;BME280;35061;47.664;9.166;2023-04-15T03:59:48;100596.36;;;3.54;78.50
18755;BME280;35061;47.664;9.166;2023-04-15T04:02:16;100599.98;;;3.55;79.04
18755;BME280;35061;47.664;9.166;2023-04-15T04:04:44;100597.50;;;3.57;78.83
18755;BME280;35061;47.664;9.166;2023-04-15T04:07:16;100598.09;;;3.52;78.45
18755;BME280;35061;47.664;9.166;2023-04-15T04:09:44;100589.59;;;3.52;79.12
18755;BME280;35061;47.664;9.166;2023-04-15T04:12:12;100599.98;;;3.55;78.97
18755;BME280;35061;47.664;9.166;2023-04-15T04:14:41;100601.91;;;3.58;79.34
18755;BME280;35061;47.664;9.166;2023-04-15T04:17:09;100602.27;;;3.60;79.48
18755;BME280;35061;47.664;9.166;2023-04-15T04:19:37;100605.45;;;3.62;79.42
18755;BME280;35061;47.664;9.166;2023-04-15T04:22:05;100611.79;;;3.66;79.43
18755;BME280;35061;47.664;9.166;2023-04-15T04:24:33;100612.84;;;3.72;80.04
18755;BME280;35061;47.664;9.166;2023-04-15T04:27:01;100605.94;;;3.73;79.69
18755;BME280;35061;47.664;9.166;2023-04-15T04:29:29;100607.87;;;3.76;79.84
18755;BME280;35061;47.664;9.166;2023-04-15T04:31:57;100610.13;;;3.82;79.52
18755;BME280;35061;47.664;9.166;2023-04-15T04:34:25;100611.73;;;3.83;79.29
18755;BME280;35061;47.664;9.166;2023-04-15T04:36:53;100616.01;;;3.74;78.93
18755;BME280;35061;47.664;9.166;2023-04-15T04:39:21;100621.21;;;3.63;79.02
18755;BME280;35061;47.664;9.166;2023-04-15T04:41:49;100615.84;;;3.52;79.07
18755;BME280;35061;47.664;9.166;2023-04-15T04:44:18;100619.67;;;3.45;79.15
18755;BME280;35061;47.664;9.166;2023-04-15T04:46:46;100622.16;;;3.43;79.53
18755;BME280;35061;47.664;9.166;2023-04-15T04:49:14;100613.20;;;3.45;79.60
18755;BME280;35061;47.664;9.166;2023-04-15T04:51:42;100609.05;;;3.49;80.12
18755;BME280;35061;47.664;9.166;2023-04-15T04:54:10;100605.22;;;3.56;79.74
18755;BME280;35061;47.664;9.166;2023-04-15T04:56:38;100616.80;;;3.62;80.18
18755;BME280;35061;47.664;9.166;2023-04-15T04:59:06;100610.13;;;3.69;79.98
18755;BME280;35061;47.664;9.166;2023-04-15T05:01:34;100608.62;;;3.77;79.94
18755;BME280;35061;47.664;9.166;2023-04-15T05:04:02;100612.41;;;3.87;79.98
18755;BME280;35061;47.664;9.166;2023-04-15T05:06:32;100616.14;;;3.97;79.84
18755;BME280;35061;47.664;9.166;2023-04-15T05:08:59;100607.87;;;4.02;79.57
18755;BME280;35061;47.664;9.166;2023-04-15T05:11:28;100617.05;;;4.07;79.41
18755;BME280;35061;47.664;9.166;2023-04-15T05:13:56;100612.55;;;4.09;79.75
18755;BME280;35061;47.664;9.166;2023-04-15T05:16:24;100613.66;;;4.12;79.91
18755;BME280;35061;47.664;9.166;2023-04-15T05:18:52;100605.05;;;4.15;79.64
18755;BME280;35061;47.664;9.166;2023-04-15T05:21:20;100613.55;;;4.15;79.67
18755;BME280;35061;47.664;9.166;2023-04-15T05:23:48;100611.04;;;4.17;79.48
18755;BME280;35061;47.664;9.166;2023-04-15T05:26:16;100613.00;;;4.21;79.41
18755;BME280;35061;47.664;9.166;2023-04-15T05:28:44;100617.29;;;4.25;79.70
18755;BME280;35061;47.664;9.166;2023-04-15T05:31:13;100621.47;;;4.33;79.83
18755;BME280;35061;47.664;9.166;2023-04-15T05:33:41;100622.95;;;4.38;79.72
18755;BME280;35061;47.664;9.166;2023-04-15T05:36:09;100625.56;;;4.45;79.49
18755;BME280;35061;47.664;9.166;2023-04-15T05:38:37;100627.49;;;4.49;79.92
18755;BME280;35061;47.664;9.166;2023-04-15T05:41:05;100625.79;;;4.51;79.88
18755;BME280;35061;47.664;9.166;2023-04-15T05:43:33;100631.67;;;4.57;80.23
18755;BME280;35061;47.664;9.166;2023-04-15T05:46:01;100621.80;;;4.61;80.02
18755;BME280;35061;47.664;9.166;2023-04-15T05:48:29;100618.73;;;4.69;80.27
18755;BME280;35061;47.664;9.166;2023-04-15T05:50:57;100631.18;;;4.71;80.22
18755;BME280;35061;47.664;9.166;2023-04-15T05:53:25;100625.72;;;4.77;79.67
18755;BME280;35061;47.664;9.166;2023-04-15T05:55:53;100622.98;;;4.86;79.47
18755;BME280;35061;47.664;9.166;2023-04-15T05:58:21;100624.32;;;4.95;79.35
18755;BME280;35061;47.664;9.166;2023-04-15T06:00:49;100628.17;;;5.01;79.43
18755;BME280;35061;47.664;9.166;2023-04-15T06:03:18;100625.27;;;5.14;79.26
18755;BME280;35061;47.664;9.166;2023-04-15T06:05:46;100623.17;;;5.27;79.08
18755;BME280;35061;47.664;9.166;2023-04-15T06:08:14;100630.98;;;5.36;78.85
18755;BME280;35061;47.664;9.166;2023-04-15T06:10:42;100632.16;;;5.48;78.75
18755;BME280;35061;47.664;9.166;2023-04-15T06:13:10;100629.55;;;5.54;78.65
18755;BME280;35061;47.664;9.166;2023-04-15T06:15:38;100622.65;;;5.64;78.52
18755;BME280;35061;47.664;9.166;2023-04-15T06:18:05;100627.91;;;5.75;78.16
18755;BME280;35061;47.664;9.166;2023-04-15T06:20:33;100625.95;;;5.85;77.41
18755;BME280;35061;47.664;9.166;2023-04-15T06:23:01;100621.18;;;5.82;77.36
18755;BME280;35061;47.664;9.166;2023-04-15T06:25:29;100630.56;;;5.92;76.97
18755;BME280;35061;47.664;9.166;2023-04-15T06:27:58;100626.54;;;6.02;77.28
18755;BME280;35061;47.664;9.166;2023-04-15T06:30:26;100623.11;;;6.17;76.99
18755;BME280;35061;47.664;9.166;2023-04-15T06:32:54;100627.59;;;6.27;76.97
18755;BME280;35061;47.664;9.166;2023-04-15T06:35:22;100614.34;;;6.33;76.71
18755;BME280;35061;47.664;9.166;2023-04-15T06:37:50;100619.25;;;6.42;76.57
18755;BME280;35061;47.664;9.166;2023-04-15T06:40:18;100626.57;;;6.52;76.16
18755;BME280;35061;47.664;9.166;2023-04-15T06:42:46;100615.65;;;6.60;75.85
18755;BME280;35061;47.664;9.166;2023-04-15T06:45:14;100624.09;;;6.73;75.70
18755;BME280;35061;47.664;9.166;2023-04-15T06:47:42;100624.41;;;6.84;75.35
18755;BME280;35061;47.664;9.166;2023-04-15T06:50:10;100627.13;;;6.97;75.43
18755;BME280;35061;47.664;9.166;2023-04-15T06:52:38;100627.42;;;7.00;74.47
18755;BME280;35061;47.664;9.166;2023-04-15T06:55:06;100626.48;;;7.03;74.43
18755;BME280;35061;47.664;9.166;2023-04-15T06:57:34;100631.09;;;7.28;75.46
18755;BME280;35061;47.664;9.166;2023-04-15T07:00:03;100635.37;;;8.13;73.86
18755;BME280;35061;47.664;9.166;2023-04-15T07:02:32;100633.70;;;8.40;71.63
18755;BME280;35061;47.664;9.166;2023-04-15T07:05:00;100634.84;;;8.91;70.90
18755;BME280;35061;47.664;9.166;2023-04-15T07:07:28;100630.30;;;9.09;68.49
18755;BME280;35061;47.664;9.166;2023-04-15T07:09:56;100627.95;;;9.23;67.80
18755;BME280;35061;47.664;9.166;2023-04-15T07:12:24;100628.30;;;9.15;67.81
18755;BME280;35061;47.664;9.166;2023-04-15T07:14:52;100632.82;;;9.07;67.86
18755;BME280;35061;47.664;9.166;2023-04-15T07:17:20;100623.23;;;8.95;67.66
18755;BME280;35061;47.664;9.166;2023-04-15T07:19:48;100622.62;;;8.91;67.79
18755;BME280;35061;47.664;9.166;2023-04-15T07:22:16;100623.80;;;8.84;67.14
18755;BME280;35061;47.664;9.166;2023-04-15T07:24:45;100622.42;;;8.70;66.22
18755;BME280;35061;47.664;9.166;2023-04-15T07:27:13;100626.02;;;8.56;66.52
18755;BME280;35061;47.664;9.166;2023-04-15T07:29:41;100616.17;;;8.47;66.63
18755;BME280;35061;47.664;9.166;2023-04-15T07:32:09;100621.18;;;8.37;66.54
18755;BME280;35061;47.664;9.166;2023-04-15T07:34:37;100623.40;;;8.33;66.48
18755;BME280;35061;47.664;9.166;2023-04-15T07:37:05;100623.59;;;8.30;66.27
18755;BME280;35061;47.664;9.166;2023-04-15T07:39:33;100622.78;;;8.29;66.40
18755;BME280;35061;47.664;9.166;2023-04-15T07:42:01;100617.09;;;8.29;66.49
18755;BME280;35061;47.664;9.166;2023-04-15T07:44:30;100616.60;;;8.31;66.37
18755;BME280;35061;47.664;9.166;2023-04-15T07:46:58;100623.40;;;8.33;66.12
18755;BME280;35061;47.664;9.166;2023-04-15T07:49:26;100619.09;;;8.38;65.96
18755;BME280;35061;47.664;9.166;2023-04-15T07:51:54;100620.69;;;8.39;65.95
18755;BME280;35061;47.664;9.166;2023-04-15T07:54:24;100621.30;;;8.43;65.98
18755;BME280;35061;47.664;9.166;2023-04-15T07:56:52;100621.44;;;8.49;65.93
18755;BME280;35061;47.664;9.166;2023-04-15T07:59:20;100617.74;;;8.58;66.18
18755;BME280;35061;47.664;9.166;2023-04-15T08:01:49;100625.36;;;8.61;65.86
18755;BME280;35061;47.664;9.166;2023-04-15T08:04:17;100626.45;;;8.63;65.84
18755;BME280;35061;47.664;9.166;2023-04-15T08:06:45;100625.00;;;8.68;65.72
18755;BME280;35061;47.664;9.166;2023-04-15T08:09:15;100623.59;;;8.63;65.12
18755;BME280;35061;47.664;9.166;2023-04-15T08:11:43;100625.85;;;8.59;65.23
18755;BME280;35061;47.664;9.166;2023-04-15T08:14:11;100617.52;;;8.71;65.22
18755;BME280;35061;47.664;9.166;2023-04-15T08:16:39;100617.05;;;8.72;65.16
18755;BME280;35061;47.664;9.166;2023-04-15T08:19:07;100617.35;;;8.74;64.98
18755;BME280;35061;47.664;9.166;2023-04-15T08:21:35;100629.41;;;8.69;64.99
18755;BME280;35061;47.664;9.166;2023-04-15T08:24:03;100627.55;;;8.66;64.79
18755;BME280;35061;47.664;9.166;2023-04-15T08:26:31;100621.38;;;8.68;64.52
18755;BME280;35061;47.664;9.166;2023-04-15T08:28:59;100620.39;;;8.71;64.09
18755;BME280;35061;47.664;9.166;2023-04-15T08:31:28;100616.73;;;8.70;63.80
18755;BME280;35061;47.664;9.166;2023-04-15T08:33:57;100614.96;;;8.73;63.29
18755;BME280;35061;47.664;9.166;2023-04-15T08:36:26;100616.66;;;8.79;63.14
18755;BME280;35061;47.664;9.166;2023-04-15T08:38:54;100619.51;;;8.79;63.18
18755;BME280;35061;47.664;9.166;2023-04-15T08:41:24;100627.06;;;8.92;63.03
18755;BME280;35061;47.664;9.166;2023-04-15T08:44:03;100615.95;;;8.94;62.93
18755;BME280;35061;47.664;9.166;2023-04-15T08:46:32;100620.78;;;9.03;62.33
18755;BME280;35061;47.664;9.166;2023-04-15T08:49:03;100614.54;;;9.14;62.60
18755;BME280;35061;47.664;9.166;2023-04-15T08:51:31;100617.61;;;9.25;62.27
18755;BME280;35061;47.664;9.166;2023-04-15T08:54:01;100619.90;;;9.36;62.44
18755;BME280;35061;47.664;9.166;2023-04-15T08:56:31;100614.08;;;9.45;62.26
18755;BME280;35061;47.664;9.166;2023-04-15T08:59:00;100620.82;;;9.57;62.21
18755;BME280;35061;47.664;9.166;2023-04-15T09:01:28;100616.60;;;9.68;61.87
18755;BME280;35061;47.664;9.166;2023-04-15T09:03:58;100616.37;;;9.71;61.72
18755;BME280;35061;47.664;9.166;2023-04-15T09:06:26;100609.60;;;9.84;61.51
18755;BME280;35061;47.664;9.166;2023-04-15T09:08:54;100611.37;;;9.96;60.93
18755;BME280;35061;47.664;9.166;2023-04-15T09:11:22;100605.94;;;9.98;60.88
18755;BME280;35061;47.664;9.166;2023-04-15T09:13:51;100603.45;;;10.06;60.61
18755;BME280;35061;47.664;9.166;2023-04-15T09:16:19;100608.30;;;10.15;60.52
18755;BME280;35061;47.664;9.166;2023-04-15T09:18:47;100618.53;;;10.22;60.45
18755;BME280;35061;47.664;9.166;2023-04-15T09:21:16;100622.55;;;10.30;59.89
18755;BME280;35061;47.664;9.166;2023-04-15T09:23:55;100616.70;;;10.39;59.89
18755;BME280;35061;47.664;9.166;2023-04-15T09:26:35;100619.54;;;10.54;58.99
18755;BME280;35061;47.664;9.166;2023-04-15T09:29:10;100613.49;;;10.67;58.54
18755;BME280;35061;47.664;9.166;2023-04-15T09:31:41;100619.45;;;10.84;59.16
18755;BME280;35061;47.664;9.166;2023-04-15T09:34:10;100620.46;;;11.02;59.19
18755;BME280;35061;47.664;9.166;2023-04-15T09:39:16;100624.22;;;11.35;58.08
18755;BME280;35061;47.664;9.166;2023-04-15T09:41:44;100614.93;;;11.40;57.37
18755;BME280;35061;47.664;9.166;2023-04-15T09:44:22;100612.88;;;11.46;57.83
18755;BME280;35061;47.664;9.166;2023-04-15T09:46:50;100622.12;;;11.56;57.03
18755;BME280;35061;47.664;9.166;2023-04-15T09:49:18;100616.44;;;11.62;55.61
18755;BME280;35061;47.664;9.166;2023-04-15T09:51:47;100618.62;;;11.72;56.96
18755;BME280;35061;47.664;9.166;2023-04-15T09:54:35;100617.16;;;11.83;56.85
18755;BME280;35061;47.664;9.166;2023-04-15T09:57:07;100619.54;;;11.84;55.98
18755;BME280;35061;47.664;9.166;2023-04-15T09:59:36;100614.38;;;11.94;55.56
18755;BME280;35061;47.664;9.166;2023-04-15T10:02:04;100610.29;;;12.01;55.48
18755;BME280;35061;47.664;9.166;2023-04-15T10:04:39;100614.02;;;12.07;55.41
18755;BME280;35061;47.664;9.166;2023-04-15T10:07:08;100612.25;;;12.16;55.04
18755;BME280;35061;47.664;9.166;2023-04-15T10:09:38;100615.69;;;12.20;55.30
18755;BME280;35061;47.664;9.166;2023-04-15T10:12:06;100611.53;;;12.26;54.98
18755;BME280;35061;47.664;9.166;2023-04-15T10:14:35;100615.52;;;12.35;54.54
18755;BME280;35061;47.664;9.166;2023-04-15T10:17:06;100613.33;;;12.18;53.68
18755;BME280;35061;47.664;9.166;2023-04-15T10:19:36;100606.37;;;11.98;53.57
18755;BME280;35061;47.664;9.166;2023-04-15T10:22:05;100618.30;;;11.91;53.97
18755;BME280;35061;47.664;9.166;2023-04-15T10:24:34;100616.41;;;11.82;53.85
18755;BME280;35061;47.664;9.166;2023-04-15T10:27:03;100626.97;;;11.70;54.72
18755;BME280;35061;47.664;9.166;2023-04-15T10:29:33;100612.35;;;11.68;54.71
18755;BME280;35061;47.664;9.166;2023-04-15T10:32:02;100616.73;;;11.64;55.46
18755;BME280;35061;47.664;9.166;2023-04-15T10:34:31;100623.20;;;11.58;55.52
18755;BME280;35061;47.664;9.166;2023-04-15T10:37:02;100620.69;;;11.66;55.96
18755;BME280;35061;47.664;9.166;2023-04-15T10:42:19;100626.12;;;11.64;55.41
18755;BME280;35061;47.664;9.166;2023-04-15T10:44:50;100628.21;;;11.64;55.18
18755;BME280;35061;47.664;9.166;2023-04-15T10:47:20;100617.81;;;11.66;55.86
18755;BME280;35061;47.664;9.166;2023-04-15T10:49:50;100619.64;;;11.69;55.69
18755;BME280;35061;47.664;9.166;2023-04-15T10:52:22;100629.78;;;11.65;54.67
18755;BME280;35061;47.664;9.166;2023-04-15T10:57:39;100626.73;;;11.74;54.88
18755;BME280;35061;47.664;9.166;2023-04-15T11:08:08;100631.80;;;11.85;54.30
18755;BME280;35061;47.664;9.166;2023-04-15T11:15:45;100633.18;;;11.63;54.27
18755;BME280;35061;47.664;9.166;2023-04-15T11:18:27;100635.56;;;11.70;54.65
18755;BME280;35061;47.664;9.166;2023-04-15T11:21:00;100640.02;;;11.71;54.74
18755;BME280;35061;47.664;9.166;2023-04-15T11:23:33;100638.15;;;11.68;55.10
18755;BME280;35061;47.664;9.166;2023-04-15T11:26:05;100640.54;;;11.70;55.31
18755;BME280;35061;47.664;9.166;2023-04-15T11:28:37;100646.09;;;11.79;55.04
18755;BME280;35061;47.664;9.166;2023-04-15T11:31:16;100640.41;;;11.85;55.30
18755;BME280;35061;47.664;9.166;2023-04-15T11:33:58;100638.15;;;11.95;54.87
18755;BME280;35061;47.664;9.166;2023-04-15T11:36:29;100636.41;;;12.03;54.55
18755;BME280;35061;47.664;9.166;2023-04-15T11:38:58;100638.38;;;12.18;54.35
18755;BME280;35061;47.664;9.166;2023-04-15T11:41:27;100639.75;;;12.28;54.12
18755;BME280;35061;47.664;9.166;2023-04-15T11:43:55;100640.96;;;12.48;53.54
18755;BME280;35061;47.664;9.166;2023-04-15T11:46:28;100642.59;;;12.60;53.22
18755;BME280;35061;47.664;9.166;2023-04-15T11:48:57;100641.38;;;12.78;53.28
18755;BME280;35061;47.664;9.166;2023-04-15T11:51:31;100650.84;;;12.84;52.50
18755;BME280;35061;47.664;9.166;2023-04-15T11:53:59;100644.10;;;12.99;52.39
18755;BME280;35061;47.664;9.166;2023-04-15T11:56:28;100649.63;;;13.03;50.74
18755;BME280;35061;47.664;9.166;2023-04-15T11:58:57;100656.40;;;13.00;50.88
18755;BME280;35061;47.664;9.166;2023-04-15T12:01:36;100656.40;;;12.94;50.84
18755;BME280;35061;47.664;9.166;2023-04-15T12:04:19;100656.40;;;12.94;50.23
18755;BME280;35061;47.664;9.166;2023-04-15T12:06:51;100662.41;;;13.02;51.23
18755;BME280;35061;47.664;9.166;2023-04-15T12:09:20;100664.27;;;13.05;51.39
18755;BME280;35061;47.664;9.166;2023-04-15T12:11:49;100669.48;;;13.01;50.24
18755;BME280;35061;47.664;9.166;2023-04-15T12:16:57;100677.88;;;13.04;48.33
18755;BME280;35061;47.664;9.166;2023-04-15T12:19:28;100686.19;;;12.96;49.52
18755;BME280;35061;47.664;9.166;2023-04-15T12:22:05;100674.12;;;12.92;49.98
18755;BME280;35061;47.664;9.166;2023-04-15T12:24:36;100686.38;;;12.87;50.28
18755;BME280;35061;47.664;9.166;2023-04-15T12:27:06;100681.15;;;12.86;50.88
18755;BME280;35061;47.664;9.166;2023-04-15T12:29:35;100675.39;;;12.86;50.79
18755;BME280;35061;47.664;9.166;2023-04-15T12:32:05;100689.42;;;12.72;50.09
18755;BME280;35061;47.664;9.166;2023-04-15T12:34:42;100692.04;;;12.70;50.67
18755;BME280;35061;47.664;9.166;2023-04-15T12:37:11;100687.85;;;12.71;51.06
18755;BME280;35061;47.664;9.166;2023-04-15T12:39:42;100696.52;;;12.77;50.96
18755;BME280;35061;47.664;9.166;2023-04-15T12:42:10;100696.19;;;12.69;51.24
18755;BME280;35061;47.664;9.166;2023-04-15T12:44:39;100706.95;;;12.74;51.35
18755;BME280;35061;47.664;9.166;2023-04-15T12:47:09;100711.40;;;12.75;50.72
18755;BME280;35061;47.664;9.166;2023-04-15T12:49:37;100713.20;;;12.73;51.05
18755;BME280;35061;47.664;9.166;2023-04-15T12:52:06;100718.20;;;12.78;51.47
18755;BME280;35061;47.664;9.166;2023-04-15T12:54:34;100711.20;;;12.84;50.79
18755;BME280;35061;47.664;9.166;2023-04-15T12:57:03;100727.12;;;12.86;49.00
18755;BME280;35061;47.664;9.166;2023-04-15T12:59:33;100724.25;;;12.86;49.00
18755;BME280;35061;47.664;9.166;2023-04-15T13:02:02;100739.42;;;12.86;48.50
18755;BME280;35061;47.664;9.166;2023-04-15T13:04:30;100731.09;;;12.88;48.34
18755;BME280;35061;47.664;9.166;2023-04-15T13:06:59;100722.94;;;12.87;47.68
18755;BME280;35061;47.664;9.166;2023-04-15T13:09:28;100727.98;;;12.92;48.22
18755;BME280;35061;47.664;9.166;2023-04-15T13:11:56;100731.34;;;12.90;47.09
18755;BME280;35061;47.664;9.166;2023-04-15T13:14:24;100741.84;;;12.99;47.99
18755;BME280;35061;47.664;9.166;2023-04-15T13:16:52;100740.08;;;13.07;48.02
18755;BME280;35061;47.664;9.166;2023-04-15T13:19:20;100742.16;;;13.07;46.65
18755;BME280;35061;47.664;9.166;2023-04-15T13:21:48;100740.86;;;13.08;46.96
18755;BME280;35061;47.664;9.166;2023-04-15T13:24:16;100744.55;;;13.14;47.42
18755;BME280;35061;47.664;9.166;2023-04-15T13:26:44;100744.59;;;13.20;47.55
18755;BME280;35061;47.664;9.166;2023-04-15T13:29:15;100747.23;;;13.29;47.40
18755;BME280;35061;47.664;9.166;2023-04-15T13:31:43;100745.93;;;13.30;46.57